Time;durP1;ratioP1;P1;durP2;ratioP2;P2;SDS_P1;SDS_P2;PMS_P1;PMS_P2;Temp;Humidity;BMP_temperature;BMP_pressure;BME280_temperature;BME280_humidity;BME280_pressure;Samples;Min_cycle;Max_cycle;Signal;HPM_P1;HPM_P2
2023/08/21 00:01:49;;;;;;;6.45;2.63;;;17.60;99.90;;;;;;5036114;28;20069;-61
2023/08/21 00:04:16;;;;;;;9.55;2.80;;;17.50;99.90;;;;;;5036110;28;20477;-59
2023/08/21 00:06:43;;;;;;;11.75;3.22;;;17.50;99.90;;;;;;5035961;28;20396;-58
2023/08/21 00:09:10;;;;;;;9.40;2.80;;;17.50;99.90;;;;;;5036019;28;20099;-60
2023/08/21 00:11:37;;;;;;;8.93;2.72;;;17.50;99.90;;;;;;5035659;28;20435;-61
2023/08/21 00:14:03;;;;;;;11.57;3.05;;;17.40;99.90;;;;;;5034982;28;20136;-60
2023/08/21 00:16:30;;;;;;;8.35;2.65;;;17.40;99.90;;;;;;5041970;28;20049;-60
2023/08/21 00:18:57;;;;;;;9.75;3.20;;;17.40;99.90;;;;;;5056480;28;20045;-60
2023/08/21 00:21:24;;;;;;;13.57;3.45;;;17.30;99.90;;;;;;5055608;28;20586;-59
2023/08/21 00:23:51;;;;;;;7.28;2.72;;;17.30;99.90;;;;;;5055371;28;20072;-58
2023/08/21 00:26:17;;;;;;;10.50;3.15;;;17.30;99.90;;;;;;5055377;28;20052;-56
2023/08/21 00:28:44;;;;;;;12.45;3.33;;;17.20;99.90;;;;;;5054266;28;20050;-59
2023/08/21 00:31:11;;;;;;;7.40;2.95;;;17.20;99.90;;;;;;5055320;28;20065;-59
2023/08/21 00:33:38;;;;;;;9.35;3.20;;;17.20;99.90;;;;;;5055207;28;20048;-59
2023/08/21 00:36:04;;;;;;;11.30;3.10;;;17.20;99.90;;;;;;5055151;28;20404;-59
2023/08/21 00:38:31;;;;;;;8.50;2.70;;;17.20;99.90;;;;;;5053838;28;20053;-61
2023/08/21 00:40:58;;;;;;;12.07;3.33;;;17.20;99.90;;;;;;5055139;28;20457;-60
2023/08/21 00:43:25;;;;;;;7.30;2.72;;;17.10;99.90;;;;;;5052774;28;20468;-60
2023/08/21 00:45:52;;;;;;;7.32;2.90;;;17.10;99.90;;;;;;5033615;28;20037;-58
2023/08/21 00:48:18;;;;;;;8.68;3.20;;;17.10;99.90;;;;;;5034947;28;20137;-60
2023/08/21 00:50:45;;;;;;;7.65;2.60;;;17.10;99.90;;;;;;5033901;28;20041;-59
2023/08/21 00:53:12;;;;;;;7.13;2.70;;;17.00;99.90;;;;;;5035520;28;20045;-57
2023/08/21 00:55:39;;;;;;;12.02;3.28;;;17.00;99.90;;;;;;5033934;28;20053;-59
2023/08/21 00:58:06;;;;;;;8.65;2.88;;;17.00;99.90;;;;;;5035028;28;20420;-60
2023/08/21 01:00:33;;;;;;;9.25;3.15;;;17.00;99.90;;;;;;5034075;28;20056;-59
2023/08/21 01:03:00;;;;;;;9.20;3.42;;;17.00;99.90;;;;;;5033900;28;20129;-57
2023/08/21 01:05:26;;;;;;;9.27;3.25;;;17.00;99.90;;;;;;5035188;28;20041;-58
2023/08/21 01:07:53;;;;;;;6.95;3.15;;;16.90;99.90;;;;;;5035060;28;20129;-57
2023/08/21 01:10:21;;;;;;;8.90;2.97;;;16.90;99.90;;;;;;5033326;28;20045;-58
2023/08/21 01:12:48;;;;;;;9.00;2.92;;;16.90;99.90;;;;;;5033244;28;20049;-53
2023/08/21 01:15:16;;;;;;;8.15;3.17;;;16.90;99.90;;;;;;5033646;28;20100;-59
2023/08/21 01:17:42;;;;;;;8.73;3.35;;;16.80;99.90;;;;;;5034713;28;20048;-59
2023/08/21 01:20:09;;;;;;;8.98;2.92;;;16.80;99.90;;;;;;5033309;28;20069;-58
2023/08/21 01:22:36;;;;;;;9.00;3.13;;;16.80;99.90;;;;;;5017285;28;20046;-60
2023/08/21 01:25:05;;;;;;;10.35;3.40;;;16.80;99.90;;;;;;5033150;28;20041;-59
2023/08/21 01:27:32;;;;;;;8.90;3.50;;;16.70;99.90;;;;;;5033031;28;20049;-58
2023/08/21 01:29:58;;;;;;;7.65;3.10;;;16.70;99.90;;;;;;5034554;28;20120;-60
2023/08/21 01:32:25;;;;;;;8.52;3.30;;;16.70;99.90;;;;;;5033493;28;20469;-57
2023/08/21 01:34:52;;;;;;;10.65;3.05;;;16.70;99.90;;;;;;5034346;28;20037;-56
2023/08/21 01:37:19;;;;;;;8.55;3.08;;;16.70;99.90;;;;;;5034110;28;20639;-60
2023/08/21 01:39:48;;;;;;;10.70;3.17;;;16.60;99.90;;;;;;5034271;28;20485;-61
2023/08/21 01:42:15;;;;;;;7.55;3.17;;;16.60;99.90;;;;;;5034302;28;20128;-61
2023/08/21 01:44:45;;;;;;;10.90;3.05;;;16.60;99.90;;;;;;5033928;28;20547;-60
2023/08/21 01:47:12;;;;;;;10.18;3.47;;;16.60;99.90;;;;;;5032629;28;20091;-58
2023/08/21 01:49:39;;;;;;;7.20;2.92;;;16.50;99.90;;;;;;5034326;28;20445;-60
2023/08/21 01:52:06;;;;;;;8.55;3.30;;;16.50;99.90;;;;;;5034553;28;20053;-60
2023/08/21 01:54:32;;;;;;;7.30;3.15;;;16.50;99.90;;;;;;5033853;28;20506;-60
2023/08/21 01:56:59;;;;;;;9.57;3.35;;;16.40;99.90;;;;;;5032447;28;20060;-60
2023/08/21 01:59:26;;;;;;;7.03;3.15;;;16.40;99.90;;;;;;5032389;28;20471;-59
2023/08/21 02:01:53;;;;;;;11.75;3.65;;;16.40;99.90;;;;;;5032390;28;20046;-60
2023/08/21 02:04:20;;;;;;;9.35;3.47;;;16.40;99.90;;;;;;5033687;28;20038;-58
2023/08/21 02:06:47;;;;;;;9.10;3.72;;;16.30;99.90;;;;;;5032664;28;20144;-60
2023/08/21 02:09:14;;;;;;;7.82;3.25;;;16.30;99.90;;;;;;5032698;28;20041;-56
2023/08/21 02:11:40;;;;;;;8.30;3.78;;;16.30;99.90;;;;;;5034126;28;20050;-59
2023/08/21 02:14:07;;;;;;;9.55;3.95;;;16.30;99.90;;;;;;5033627;28;20262;-59
2023/08/21 02:16:34;;;;;;;11.15;3.70;;;16.20;99.90;;;;;;5033454;28;20053;-60
2023/08/21 02:19:01;;;;;;;9.23;3.65;;;16.20;99.90;;;;;;5033944;28;20120;-61
2023/08/21 02:21:30;;;;;;;11.27;4.35;;;16.20;99.90;;;;;;5033582;28;20392;-61
2023/08/21 02:23:57;;;;;;;10.63;4.38;;;16.10;99.90;;;;;;5033924;28;20385;-57
2023/08/21 02:26:24;;;;;;;11.27;4.88;;;16.10;99.90;;;;;;5032145;28;20041;-60
2023/08/21 02:28:51;;;;;;;12.10;6.25;;;16.10;99.90;;;;;;5033697;28;20033;-60
2023/08/21 02:31:18;;;;;;;10.18;5.18;;;16.10;99.90;;;;;;5033572;28;20045;-60
2023/08/21 02:33:44;;;;;;;13.93;6.20;;;16.10;99.90;;;;;;5033767;28;20469;-59
2023/08/21 02:36:11;;;;;;;10.60;6.00;;;16.10;99.90;;;;;;5033551;28;20075;-60
2023/08/21 02:38:38;;;;;;;12.75;5.55;;;16.10;99.90;;;;;;5033224;28;20488;-59
2023/08/21 02:41:05;;;;;;;9.77;5.78;;;16.10;99.90;;;;;;5032919;28;20064;-58
2023/08/21 02:43:32;;;;;;;10.52;6.00;;;16.00;99.90;;;;;;5032475;28;20124;-58
2023/08/21 02:45:59;;;;;;;10.68;5.47;;;16.00;99.90;;;;;;5033180;28;20125;-59
2023/08/21 02:48:25;;;;;;;10.13;5.68;;;16.00;99.90;;;;;;5032942;28;20060;-60
2023/08/21 02:50:53;;;;;;;13.82;5.75;;;16.00;99.90;;;;;;5031429;28;20045;-60
2023/08/21 02:53:20;;;;;;;14.25;5.80;;;16.00;99.90;;;;;;5033447;28;20049;-59
2023/08/21 02:55:47;;;;;;;12.15;5.47;;;16.00;99.90;;;;;;5032923;28;20041;-59
2023/08/21 02:58:13;;;;;;;12.93;5.88;;;15.90;99.90;;;;;;5031802;28;20041;-60
2023/08/21 03:00:40;;;;;;;10.63;5.82;;;15.90;99.90;;;;;;5032772;28;20485;-58
2023/08/21 03:03:07;;;;;;;10.38;5.78;;;15.90;99.90;;;;;;5031770;28;20050;-56
2023/08/21 03:05:34;;;;;;;11.48;6.00;;;15.90;99.90;;;;;;5031946;28;20041;-57
2023/08/21 03:08:01;;;;;;;12.90;6.05;;;15.90;99.90;;;;;;5033011;28;20034;-56
2023/08/21 03:10:29;;;;;;;14.48;5.72;;;15.80;99.90;;;;;;5033012;28;20045;-60
2023/08/21 03:12:56;;;;;;;12.20;5.80;;;15.80;99.90;;;;;;5033213;28;20043;-60
2023/08/21 03:15:23;;;;;;;13.30;6.57;;;15.80;99.90;;;;;;5032859;28;20041;-59
2023/08/21 03:17:50;;;;;;;14.20;6.38;;;15.80;99.90;;;;;;5032748;28;20156;-57
2023/08/21 03:20:19;;;;;;;11.70;6.32;;;15.70;99.90;;;;;;5033086;28;20049;-60
2023/08/21 03:22:46;;;;;;;12.23;6.28;;;15.80;99.90;;;;;;5031489;28;20099;-59
2023/08/21 03:25:13;;;;;;;9.07;5.47;;;15.70;99.90;;;;;;5032622;28;20038;-59
2023/08/21 03:27:44;;;;;;;10.07;6.72;;;15.70;99.90;;;;;;5031058;28;20132;-59
2023/08/21 03:30:14;;;;;;;12.93;7.07;;;15.70;99.90;;;;;;5032708;28;20578;-57
2023/08/21 03:32:42;;;;;;;15.73;6.97;;;15.70;99.90;;;;;;5032782;28;20041;-58
2023/08/21 03:35:09;;;;;;;13.70;6.43;;;15.70;99.90;;;;;;5014895;28;20049;-57
2023/08/21 03:37:37;;;;;;;9.95;6.40;;;15.70;99.90;;;;;;5032546;28;20033;-56
2023/08/21 03:40:05;;;;;;;12.30;6.50;;;15.80;99.90;;;;;;5031592;28;20420;-57
2023/08/21 03:42:33;;;;;;;13.80;6.20;;;15.80;99.90;;;;;;5015139;28;20049;-60
2023/08/21 03:45:00;;;;;;;9.80;6.43;;;15.90;99.90;;;;;;5032970;28;20042;-60
2023/08/21 03:47:26;;;;;;;12.77;6.05;;;16.00;99.90;;;;;;5030888;28;20064;-59
2023/08/21 03:49:58;;;;;;;11.02;5.22;;;16.00;99.90;;;;;;5031256;28;20129;-56
2023/08/21 03:52:25;;;;;;;14.75;5.43;;;16.10;99.90;;;;;;5031322;28;20041;-60
2023/08/21 03:54:52;;;;;;;11.27;5.28;;;16.10;99.90;;;;;;5032754;28;20479;-60
2023/08/21 03:57:19;;;;;;;12.93;5.75;;;16.20;99.90;;;;;;5030865;28;20187;-59
2023/08/21 03:59:45;;;;;;;10.48;5.13;;;16.20;99.90;;;;;;5031169;28;20038;-60
2023/08/21 04:02:12;;;;;;;11.98;6.20;;;16.30;99.90;;;;;;5032888;28;20128;-60
2023/08/21 04:04:39;;;;;;;11.75;5.15;;;16.30;99.90;;;;;;5018377;28;20073;-57
2023/08/21 04:07:06;;;;;;;11.88;5.10;;;16.30;99.90;;;;;;5017980;28;20033;-57
2023/08/21 04:09:33;;;;;;;13.35;5.80;;;16.30;99.90;;;;;;5034734;28;20069;-58
2023/08/21 04:12:00;;;;;;;10.35;5.60;;;16.30;99.90;;;;;;5035217;28;20496;-59
2023/08/21 04:14:27;;;;;;;13.85;5.40;;;16.30;99.90;;;;;;5035082;28;20045;-60
2023/08/21 04:16:53;;;;;;;14.68;5.30;;;16.30;99.90;;;;;;5034387;28;20054;-58
2023/08/21 04:19:20;;;;;;;13.68;5.07;;;16.30;99.90;;;;;;5036131;28;20093;-57
2023/08/21 04:21:47;;;;;;;13.27;5.53;;;16.30;99.90;;;;;;5034354;28;20050;-59
2023/08/21 04:24:14;;;;;;;12.38;4.95;;;16.30;99.90;;;;;;5034360;28;20045;-60
2023/08/21 04:26:41;;;;;;;12.70;5.15;;;16.30;99.90;;;;;;5034430;28;20042;-56
2023/08/21 04:29:07;;;;;;;12.15;5.43;;;16.40;99.90;;;;;;5035388;28;20112;-57
2023/08/21 04:31:34;;;;;;;10.85;4.80;;;16.40;99.90;;;;;;5034325;28;20069;-59
2023/08/21 04:34:01;;;;;;;11.70;4.78;;;16.40;99.90;;;;;;5034864;28;20132;-57
2023/08/21 04:36:30;;;;;;;11.20;4.88;;;16.40;99.90;;;;;;5034559;28;20049;-56
2023/08/21 04:38:57;;;;;;;12.23;4.95;;;16.50;99.90;;;;;;5035994;28;20053;-59
2023/08/21 04:41:24;;;;;;;13.75;4.50;;;16.50;99.90;;;;;;5033951;28;20045;-59
2023/08/21 04:43:50;;;;;;;12.57;4.90;;;16.50;99.90;;;;;;5033881;28;20148;-60
2023/08/21 04:46:19;;;;;;;9.95;4.45;;;16.60;99.90;;;;;;5033942;28;20037;-57
2023/08/21 04:48:46;;;;;;;9.48;4.82;;;16.50;99.90;;;;;;5017741;28;20107;-60
2023/08/21 04:51:14;;;;;;;10.48;4.85;;;16.50;99.90;;;;;;5035109;28;20045;-56
2023/08/21 04:53:41;;;;;;;10.55;4.93;;;16.50;99.90;;;;;;5033821;28;20046;-58
2023/08/21 04:56:13;;;;;;;15.00;5.70;;;16.50;99.90;;;;;;5033742;28;20044;-59
2023/08/21 04:58:40;;;;;;;11.00;4.95;;;16.50;99.90;;;;;;5033579;28;20049;-60
2023/08/21 05:01:08;;;;;;;12.50;4.88;;;16.50;99.90;;;;;;5033919;28;20140;-59
2023/08/21 05:03:40;;;;;;;11.25;5.13;;;16.60;99.90;;;;;;5033965;28;20037;-59
2023/08/21 05:06:06;;;;;;;10.65;4.25;;;16.60;99.90;;;;;;5033578;28;20095;-59
2023/08/21 05:08:33;;;;;;;9.93;4.25;;;16.60;99.90;;;;;;5034162;28;20033;-59
2023/08/21 05:11:01;;;;;;;11.82;4.95;;;16.60;99.90;;;;;;5033635;28;20484;-58
2023/08/21 05:13:32;;;;;;;10.82;4.20;;;16.60;99.90;;;;;;5033712;28;20439;-60
2023/08/21 05:15:59;;;;;;;11.02;4.32;;;16.60;99.90;;;;;;5033681;28;20057;-59
2023/08/21 05:18:30;;;;;;;9.98;3.95;;;16.60;99.90;;;;;;5034003;28;20095;-54
2023/08/21 05:20:57;;;;;;;9.95;4.15;;;16.60;99.90;;;;;;5033468;28;20045;-57
2023/08/21 05:23:24;;;;;;;11.73;4.13;;;16.60;99.90;;;;;;5034028;28;20049;-59
2023/08/21 05:25:55;;;;;;;8.20;4.32;;;16.60;99.90;;;;;;5033761;28;20056;-58
2023/08/21 05:28:22;;;;;;;10.65;4.53;;;16.60;99.90;;;;;;5033768;28;20104;-59
2023/08/21 05:30:49;;;;;;;8.75;4.93;;;16.70;99.90;;;;;;5033768;28;20132;-60
2023/08/21 05:33:17;;;;;;;9.35;4.93;;;16.70;99.90;;;;;;5033537;28;20076;-60
2023/08/21 05:35:46;;;;;;;7.75;4.68;;;16.70;99.90;;;;;;5033269;28;20037;-60
2023/08/21 05:38:13;;;;;;;12.70;5.22;;;16.70;99.90;;;;;;5033283;28;20045;-59
2023/08/21 05:40:40;;;;;;;10.00;4.90;;;16.70;99.90;;;;;;5034294;28;20040;-56
2023/08/21 05:43:08;;;;;;;11.63;5.13;;;16.70;99.90;;;;;;5017089;28;20060;-56
2023/08/21 05:45:37;;;;;;;9.38;5.10;;;16.70;99.90;;;;;;5033495;28;20046;-60
2023/08/21 05:48:04;;;;;;;8.27;4.88;;;16.70;99.90;;;;;;5033946;28;20052;-60
2023/08/21 05:50:31;;;;;;;11.20;5.18;;;16.70;99.90;;;;;;5034441;28;20807;-59
2023/08/21 05:52:58;;;;;;;13.50;5.40;;;16.70;99.90;;;;;;5034539;28;20046;-60
2023/08/21 05:55:25;;;;;;;11.52;5.93;;;16.60;99.90;;;;;;5033074;28;20136;-60
2023/08/21 05:57:52;;;;;;;12.25;5.78;;;16.60;99.90;;;;;;5032341;28;20079;-58
2023/08/21 06:00:19;;;;;;;9.98;5.85;;;16.50;99.90;;;;;;5033076;28;20050;-60
2023/08/21 06:02:46;;;;;;;9.25;5.40;;;16.60;99.90;;;;;;5034128;28;20564;-59
2023/08/21 06:05:34;;;;;;;9.88;5.57;;;16.60;99.90;;;;;;5032771;28;20052;-58
2023/08/21 06:08:01;;;;;;;8.52;5.45;;;16.60;99.90;;;;;;5033746;28;20037;-56
2023/08/21 06:10:30;;;;;;;9.55;5.20;;;16.60;99.90;;;;;;5032696;28;20051;-59
2023/08/21 06:12:57;;;;;;;10.90;5.30;;;16.60;99.90;;;;;;5032371;28;20057;-56
2023/08/21 06:15:24;;;;;;;9.82;4.97;;;16.60;99.90;;;;;;5032282;28;20060;-51
2023/08/21 06:17:51;;;;;;;11.73;5.75;;;16.70;99.90;;;;;;5032188;28;20123;-60
2023/08/21 06:20:19;;;;;;;9.05;5.28;;;16.70;99.90;;;;;;5032097;28;20133;-59
2023/08/21 06:22:46;;;;;;;9.32;4.63;;;16.70;99.90;;;;;;5033112;28;20049;-60
2023/08/21 06:25:13;;;;;;;8.23;5.05;;;16.70;99.90;;;;;;5031552;28;20042;-56
2023/08/21 06:27:40;;;;;;;9.98;4.65;;;16.80;99.90;;;;;;5031692;28;20134;-58
2023/08/21 06:30:24;;;;;;;9.05;5.43;;;16.70;99.90;;;;;;5033670;28;20077;-52
2023/08/21 06:32:51;;;;;;;9.25;5.18;;;16.80;99.90;;;;;;5031957;28;20049;-59
2023/08/21 06:35:18;;;;;;;7.90;4.45;;;16.80;99.90;;;;;;5015501;28;20496;-56
2023/08/21 06:37:45;;;;;;;6.88;4.30;;;16.80;99.90;;;;;;5033127;28;20055;-57
2023/08/21 06:40:11;;;;;;;7.63;4.68;;;16.80;99.90;;;;;;5033101;28;20049;-54
2023/08/21 06:42:38;;;;;;;7.05;4.53;;;16.80;99.90;;;;;;5031694;28;20107;-54
2023/08/21 06:45:06;;;;;;;5.80;4.60;;;16.90;99.90;;;;;;5031935;28;20076;-51
2023/08/21 06:47:33;;;;;;;7.60;4.30;;;16.90;99.90;;;;;;5033010;28;20061;-56
2023/08/21 06:50:00;;;;;;;9.30;4.82;;;16.90;99.90;;;;;;5031808;28;20045;-59
2023/08/21 06:52:27;;;;;;;7.68;3.55;;;17.00;99.90;;;;;;5032135;28;20041;-58
2023/08/21 06:54:53;;;;;;;8.18;4.13;;;17.00;99.90;;;;;;5033149;28;20066;-56
2023/08/21 06:57:20;;;;;;;8.68;3.90;;;17.00;99.90;;;;;;5032799;28;20052;-56
2023/08/21 06:59:47;;;;;;;8.25;3.60;;;17.00;99.90;;;;;;5032199;28;20083;-57
2023/08/21 07:02:14;;;;;;;7.70;3.90;;;17.00;99.90;;;;;;5032793;28;20129;-56
2023/08/21 07:04:41;;;;;;;7.50;3.80;;;17.10;99.90;;;;;;5033509;28;20044;-57
2023/08/21 07:07:08;;;;;;;7.60;3.72;;;17.10;99.90;;;;;;5033155;28;20041;-57
2023/08/21 07:09:34;;;;;;;10.68;3.80;;;17.20;99.90;;;;;;5032884;28;20605;-58
2023/08/21 07:12:02;;;;;;;6.10;3.42;;;17.20;99.90;;;;;;5032149;28;20098;-58
2023/08/21 07:14:29;;;;;;;8.75;3.80;;;17.30;99.90;;;;;;5029483;28;20072;-55
2023/08/21 07:16:56;;;;;;;7.97;3.38;;;17.30;99.90;;;;;;5031184;28;20120;-57
2023/08/21 07:19:23;;;;;;;8.65;3.63;;;17.40;99.90;;;;;;5031992;28;20137;-58
2023/08/21 07:21:49;;;;;;;9.82;3.50;;;17.40;99.90;;;;;;5032321;28;20045;-55
2023/08/21 07:24:16;;;;;;;10.68;3.53;;;17.50;99.90;;;;;;5030958;28;20099;-57
2023/08/21 07:26:43;;;;;;;7.45;3.40;;;17.40;99.90;;;;;;5031795;28;20073;-59
2023/08/21 07:29:10;;;;;;;6.78;3.42;;;17.40;99.90;;;;;;5032490;28;20038;-56
2023/08/21 07:31:37;;;;;;;6.28;3.40;;;17.50;99.90;;;;;;5032445;28;20041;-58
2023/08/21 07:34:04;;;;;;;7.47;3.17;;;17.60;99.90;;;;;;5032325;28;20405;-56
2023/08/21 07:36:30;;;;;;;6.90;2.83;;;17.60;99.90;;;;;;5031864;28;20482;-56
2023/08/21 07:38:57;;;;;;;8.85;3.38;;;17.60;99.90;;;;;;5036761;28;20046;-59
2023/08/21 07:41:24;;;;;;;7.75;3.20;;;17.60;99.90;;;;;;5036435;28;20121;-59
2023/08/21 07:43:53;;;;;;;8.85;3.00;;;17.70;99.90;;;;;;5036361;28;20105;-59
2023/08/21 07:46:20;;;;;;;10.25;2.80;;;17.70;99.90;;;;;;5036069;28;20575;-57
2023/08/21 07:48:47;;;;;;;9.55;3.05;;;17.80;99.90;;;;;;5035951;28;20053;-56
2023/08/21 07:51:14;;;;;;;10.35;3.10;;;17.80;99.90;;;;;;5036098;28;20038;-52
2023/08/21 07:53:41;;;;;;;10.57;3.20;;;17.80;99.90;;;;;;5036215;28;20360;-57
2023/08/21 07:56:07;;;;;;;13.50;3.35;;;17.70;99.90;;;;;;5035957;28;20041;-58
2023/08/21 07:58:34;;;;;;;13.10;3.20;;;17.80;99.90;;;;;;5036147;28;20459;-58
2023/08/21 08:01:01;;;;;;;8.73;2.70;;;17.80;99.90;;;;;;5036056;28;20052;-59
2023/08/21 08:03:28;;;;;;;8.55;2.92;;;17.80;99.90;;;;;;5036073;28;20128;-60
2023/08/21 08:05:55;;;;;;;7.53;2.33;;;17.90;99.90;;;;;;5034192;28;20118;-59
2023/08/21 08:08:22;;;;;;;8.98;2.75;;;17.90;99.90;;;;;;5035384;28;20128;-60
2023/08/21 08:10:49;;;;;;;8.57;2.75;;;17.90;99.90;;;;;;5035269;28;20033;-59
2023/08/21 08:13:15;;;;;;;7.95;2.65;;;17.90;99.90;;;;;;5034977;28;20041;-59
2023/08/21 08:15:42;;;;;;;7.53;2.33;;;17.90;99.90;;;;;;5035426;28;20124;-59
2023/08/21 08:18:09;;;;;;;7.30;2.60;;;17.90;99.90;;;;;;5034954;28;20452;-59
2023/08/21 08:20:36;;;;;;;8.55;2.58;;;17.80;99.90;;;;;;5035298;28;20068;-60
2023/08/21 08:23:02;;;;;;;7.50;2.90;;;17.70;99.90;;;;;;5034885;28;20037;-60
2023/08/21 08:25:29;;;;;;;7.68;2.95;;;17.80;99.90;;;;;;5035509;28;20069;-59
2023/08/21 08:27:56;;;;;;;12.77;2.95;;;17.80;99.90;;;;;;5035012;28;20045;-59
2023/08/21 08:30:24;;;;;;;8.35;2.28;;;17.90;99.90;;;;;;5035295;28;20055;-60
2023/08/21 08:32:50;;;;;;;7.07;2.50;;;17.90;99.90;;;;;;5033732;28;20484;-60
2023/08/21 08:35:17;;;;;;;8.05;2.47;;;18.00;99.90;;;;;;5034841;28;20037;-54
2023/08/21 08:37:44;;;;;;;5.75;2.38;;;18.10;99.90;;;;;;5034871;28;20048;-57
2023/08/21 08:40:11;;;;;;;6.22;2.08;;;18.20;99.90;;;;;;5035610;28;20054;-61
2023/08/21 08:42:38;;;;;;;5.88;2.15;;;18.20;99.90;;;;;;5035618;28;20038;-59
2023/08/21 08:45:05;;;;;;;5.28;2.00;;;18.30;99.90;;;;;;5035338;28;20370;-59
2023/08/21 08:47:32;;;;;;;5.50;2.17;;;18.40;99.90;;;;;;5034650;28;20033;-60
2023/08/21 08:49:59;;;;;;;5.95;2.00;;;18.50;99.90;;;;;;5034821;28;20068;-57
2023/08/21 08:52:26;;;;;;;6.00;1.80;;;18.50;99.90;;;;;;5035101;28;20051;-58
2023/08/21 08:54:52;;;;;;;6.40;1.77;;;18.50;99.90;;;;;;5035229;28;20056;-55
2023/08/21 08:57:19;;;;;;;6.30;1.73;;;18.70;99.90;;;;;;5034997;28;20053;-59
2023/08/21 08:59:46;;;;;;;5.90;1.52;;;18.90;99.90;;;;;;5034894;28;20069;-58
2023/08/21 09:02:13;;;;;;;5.25;1.50;;;19.10;99.90;;;;;;5034799;28;20042;-59
2023/08/21 09:04:39;;;;;;;4.05;1.40;;;19.20;99.90;;;;;;5034915;28;20496;-60
2023/08/21 09:07:06;;;;;;;9.90;1.63;;;19.40;99.90;;;;;;5033347;28;20042;-60
2023/08/21 09:09:33;;;;;;;3.20;1.20;;;19.50;99.90;;;;;;5034619;28;20045;-60
2023/08/21 09:12:00;;;;;;;3.22;1.20;;;19.60;99.90;;;;;;5028618;28;20392;-58
2023/08/21 09:14:27;;;;;;;4.75;1.25;;;19.70;99.90;;;;;;5028290;28;20037;-57
2023/08/21 09:16:54;;;;;;;6.22;1.77;;;19.90;99.90;;;;;;5027420;28;20042;-60
2023/08/21 09:19:21;;;;;;;26.77;2.97;;;20.00;99.90;;;;;;5028750;28;20519;-57
2023/08/21 09:21:48;;;;;;;14.98;2.00;;;20.20;99.90;;;;;;5026003;28;20029;-58
2023/08/21 09:24:15;;;;;;;4.65;1.60;;;20.30;99.90;;;;;;5034118;28;20519;-58
2023/08/21 09:26:42;;;;;;;4.13;1.58;;;20.30;99.90;;;;;;5033915;28;20061;-59
2023/08/21 09:29:09;;;;;;;6.03;1.40;;;20.20;99.90;;;;;;5032166;28;20044;-60
2023/08/21 09:31:36;;;;;;;3.50;1.35;;;20.20;99.90;;;;;;5033981;28;20041;-60
2023/08/21 09:34:06;;;;;;;3.67;1.48;;;20.10;99.90;;;;;;5027581;28;20085;-59
2023/08/21 09:36:33;;;;;;;3.75;1.35;;;20.10;99.90;;;;;;5033833;28;20049;-53
2023/08/21 09:39:00;;;;;;;3.90;1.30;;;20.20;99.90;;;;;;5032819;28;20057;-59
2023/08/21 09:41:26;;;;;;;5.20;1.45;;;20.10;99.90;;;;;;5033223;28;20037;-58
2023/08/21 09:43:53;;;;;;;5.05;1.70;;;20.00;99.90;;;;;;5033766;28;20041;-57
2023/08/21 09:46:20;;;;;;;3.08;1.45;;;20.00;99.90;;;;;;5034237;28;20067;-59
2023/08/21 09:48:47;;;;;;;4.25;1.55;;;19.90;99.90;;;;;;5033118;28;20049;-59
2023/08/21 09:51:14;;;;;;;4.10;1.20;;;19.80;99.90;;;;;;5034259;28;20477;-60
2023/08/21 09:53:40;;;;;;;4.10;1.30;;;19.90;99.90;;;;;;5034076;28;20461;-59
2023/08/21 09:56:08;;;;;;;5.28;1.20;;;20.00;99.90;;;;;;5032938;28;20087;-57
2023/08/21 09:58:35;;;;;;;3.47;1.10;;;20.10;99.90;;;;;;5033721;28;20073;-58
2023/08/21 10:01:02;;;;;;;4.30;1.23;;;20.20;99.90;;;;;;5019900;28;20077;-60
2023/08/21 10:03:29;;;;;;;4.13;1.25;;;20.40;99.90;;;;;;5033070;28;20117;-60
2023/08/21 10:05:56;;;;;;;3.85;1.30;;;20.70;99.90;;;;;;5032816;28;20120;-60
2023/08/21 10:08:23;;;;;;;6.70;1.65;;;20.70;99.90;;;;;;5033439;28;20034;-60
2023/08/21 10:10:50;;;;;;;3.88;1.40;;;20.80;99.90;;;;;;5032504;28;20172;-59
2023/08/21 10:13:16;;;;;;;6.03;1.60;;;20.90;99.90;;;;;;5033686;28;20048;-60
2023/08/21 10:15:43;;;;;;;5.53;1.60;;;20.90;99.90;;;;;;5026636;28;20042;-57
2023/08/21 10:18:10;;;;;;;3.08;1.40;;;20.90;99.90;;;;;;5031667;28;20041;-57
2023/08/21 10:20:37;;;;;;;4.72;1.40;;;21.00;99.90;;;;;;5032661;28;20509;-59
2023/08/21 10:23:03;;;;;;;5.60;1.58;;;21.00;99.90;;;;;;5031957;28;20042;-55
2023/08/21 10:25:30;;;;;;;3.13;1.30;;;21.00;99.90;;;;;;5033253;28;20072;-59
2023/08/21 10:27:58;;;;;;;7.07;1.60;;;21.00;99.90;;;;;;5020804;28;20441;-58
2023/08/21 10:30:25;;;;;;;4.43;1.77;;;21.00;99.90;;;;;;5030974;28;20099;-59
2023/08/21 10:32:51;;;;;;;5.07;1.45;;;20.80;99.90;;;;;;5032357;28;20091;-60
2023/08/21 10:35:18;;;;;;;5.15;1.48;;;20.80;99.90;;;;;;5033211;28;20049;-56
2023/08/21 10:37:45;;;;;;;3.50;1.27;;;20.80;99.90;;;;;;5032985;28;20127;-56
2023/08/21 10:40:12;;;;;;;3.30;1.15;;;20.80;99.90;;;;;;5032577;28;20048;-60
2023/08/21 10:42:39;;;;;;;4.82;1.58;;;20.90;99.90;;;;;;5032793;28;20061;-58
2023/08/21 10:45:07;;;;;;;4.07;2.10;;;21.00;99.90;;;;;;5031727;28;20132;-60
2023/08/21 10:47:35;;;;;;;3.53;1.50;;;21.00;99.90;;;;;;5032769;28;20395;-57
2023/08/21 10:50:03;;;;;;;3.65;1.60;;;20.90;99.90;;;;;;5031970;28;20063;-59
2023/08/21 10:52:30;;;;;;;3.47;1.40;;;20.90;99.90;;;;;;5031799;28;20053;-57
2023/08/21 10:54:57;;;;;;;5.38;1.30;;;21.00;99.90;;;;;;5031708;28;20042;-58
2023/08/21 10:57:23;;;;;;;5.85;1.25;;;21.10;99.90;;;;;;5032972;28;20041;-59
2023/08/21 10:59:50;;;;;;;4.82;1.60;;;21.00;99.90;;;;;;5032941;28;20038;-56
2023/08/21 11:02:17;;;;;;;5.22;1.30;;;21.00;99.90;;;;;;5032582;28;20049;-58
2023/08/21 11:04:44;;;;;;;5.32;1.77;;;21.10;99.90;;;;;;5032404;28;20057;-60
2023/08/21 11:07:12;;;;;;;3.70;1.35;;;21.20;99.90;;;;;;5031759;28;20053;-61
2023/08/21 11:09:39;;;;;;;5.35;1.90;;;21.30;99.90;;;;;;5021414;28;20038;-58
2023/08/21 11:12:06;;;;;;;4.70;1.55;;;21.30;99.90;;;;;;5029386;28;20045;-58
2023/08/21 11:14:33;;;;;;;5.25;1.55;;;21.30;99.90;;;;;;5032604;28;20048;-59
2023/08/21 11:16:59;;;;;;;4.95;1.55;;;21.40;99.90;;;;;;5032085;28;20052;-60
2023/08/21 11:19:26;;;;;;;5.85;1.40;;;21.40;99.90;;;;;;5032082;28;20511;-57
2023/08/21 11:21:53;;;;;;;4.15;1.38;;;21.40;99.90;;;;;;5031751;28;20562;-58
2023/08/21 11:24:20;;;;;;;3.50;1.40;;;21.50;99.90;;;;;;5031348;28;20045;-56
2023/08/21 11:26:47;;;;;;;4.65;1.30;;;21.50;99.90;;;;;;5031917;28;20429;-60
2023/08/21 11:29:14;;;;;;;4.75;1.40;;;21.60;99.90;;;;;;5032436;28;20048;-59
2023/08/21 11:31:41;;;;;;;8.35;1.73;;;21.60;99.90;;;;;;5032197;28;20034;-59
2023/08/21 11:34:07;;;;;;;4.63;1.73;;;21.50;99.90;;;;;;5031357;28;20103;-57
2023/08/21 11:36:49;;;;;;;5.15;1.40;;;21.60;99.90;;;;;;5032483;28;20041;-57
2023/08/21 11:39:16;;;;;;;5.60;1.30;;;21.60;99.90;;;;;;5031594;28;20038;-60
2023/08/21 11:41:43;;;;;;;5.18;1.33;;;21.70;99.90;;;;;;5032250;28;20045;-59
2023/08/21 11:44:09;;;;;;;5.88;1.50;;;21.70;99.90;;;;;;5032510;28;20041;-60
2023/08/21 11:46:36;;;;;;;6.60;1.20;;;21.80;99.90;;;;;;5031632;28;20118;-59
2023/08/21 11:49:03;;;;;;;5.05;1.30;;;21.80;99.50;;;;;;5032254;28;20057;-59
2023/08/21 11:51:30;;;;;;;5.60;1.35;;;21.80;99.90;;;;;;5031966;28;20463;-60
2023/08/21 11:53:57;;;;;;;3.15;0.98;;;21.80;99.80;;;;;;5032365;28;20073;-58
2023/08/21 11:56:23;;;;;;;4.45;1.25;;;21.90;99.80;;;;;;5032045;28;20060;-59
2023/08/21 11:58:50;;;;;;;4.95;1.33;;;21.90;99.80;;;;;;5032165;28;20067;-57
2023/08/21 12:01:17;;;;;;;3.17;1.15;;;22.00;99.70;;;;;;5032179;28;20072;-58
2023/08/21 12:03:44;;;;;;;6.20;1.13;;;22.00;99.40;;;;;;5032399;28;20373;-58
2023/08/21 12:06:11;;;;;;;5.03;1.80;;;22.10;99.60;;;;;;5032003;28;20045;-58
2023/08/21 12:08:38;;;;;;;5.47;1.60;;;22.20;99.20;;;;;;5031994;28;20041;-60
2023/08/21 12:11:05;;;;;;;4.20;1.30;;;22.20;99.20;;;;;;5032193;28;20046;-58
2023/08/21 12:13:32;;;;;;;5.28;1.80;;;22.20;99.00;;;;;;5032291;28;20049;-57
2023/08/21 12:16:01;;;;;;;3.75;1.30;;;22.20;99.50;;;;;;5031302;28;20072;-59
2023/08/21 12:18:28;;;;;;;5.82;1.92;;;22.20;99.10;;;;;;5030872;28;20041;-57
2023/08/21 12:20:55;;;;;;;5.47;1.70;;;22.20;98.70;;;;;;5030396;28;20488;-60
2023/08/21 12:23:22;;;;;;;5.15;1.60;;;22.20;99.10;;;;;;5031347;28;20101;-61
2023/08/21 12:25:49;;;;;;;4.78;2.10;;;22.20;99.40;;;;;;5034280;28;20044;-59
2023/08/21 12:28:16;;;;;;;4.32;2.03;;;22.30;99.30;;;;;;5033080;28;20041;-59
2023/08/21 12:30:43;;;;;;;6.05;2.03;;;22.20;99.10;;;;;;5034771;28;20128;-60
2023/08/21 12:33:09;;;;;;;5.65;2.65;;;22.30;99.00;;;;;;5034044;28;20034;-60
2023/08/21 12:35:48;;;;;;;5.05;2.85;;;22.30;98.60;;;;;;5034843;28;20041;-58
2023/08/21 12:38:15;;;;;;;6.63;3.30;;;22.40;98.40;;;;;;5035135;28;20050;-60
2023/08/21 12:40:42;;;;;;;5.50;3.17;;;22.50;98.30;;;;;;5035306;28;20397;-60
2023/08/21 12:43:09;;;;;;;5.80;3.13;;;22.50;98.20;;;;;;5034966;28;20124;-60